CA-0464 weather

Saint-François-de-Laval (Laval Aviation)
Quebec, Canada

Public forecast

Using degrees Celsius for public forecast. Weather courtesy of forecast.io.

METAR (pilot weather report)

Closest report is Montréal / Saint-Hubert Airport, 12.6 nm (23.3 km) SSE. Retrieved 2019/09/22 07:00 UTC (36 minutes ago):

CYHU 220700Z AUTO 17003KT 9SM CLR 15/14 A3007 RMK SLP185

TAF (pilot weather forecast)

Closest forecast is Montréal / Saint-Hubert Airport, 12.6 nm (23.3 km) SSE. Retrieved 2019/09/22 06:42 UTC (54 minutes ago):

TAF CYHU 220538Z 2206/2306 18005KT P6SM FEW240 FM220900 18006KT P6SM FEW050 PROB30 2209/2213 1/2SM FG BECMG 2213/2215 21012G22KT FM221700 23015G25KT P6SM FEW030 BKN120 FM222000 24018G28KT P6SM BKN040 BKN080 BECMG 2222/2224 24012G22KT RMK FCST BASED ON AUTO OBS. NXT FCST BY 221200Z